Time;durP1;ratioP1;P1;durP2;ratioP2;P2;SDS_P1;SDS_P2;PMS_P1;PMS_P2;Temp;Humidity;BMP_temperature;BMP_pressure;BME280_temperature;BME280_humidity;BME280_pressure;Samples;Min_cycle;Max_cycle;Signal;HPM_P1;HPM_P2
2022/08/12 00:45:12;;;;;;;1.70;1.30;;;24.40;67.30;;;;;;5045768;28;20029;-44
2022/08/12 00:47:38;;;;;;;1.30;1.20;;;24.30;67.40;;;;;;5044938;28;20472;-43
2022/08/12 00:50:05;;;;;;;1.48;1.30;;;24.30;67.60;;;;;;5044786;28;20060;-44
2022/08/12 00:52:33;;;;;;;3.55;1.35;;;24.20;67.80;;;;;;5045113;28;20028;-44
2022/08/12 00:55:00;;;;;;;2.08;1.20;;;24.20;68.00;;;;;;5045079;28;20028;-43
2022/08/12 00:57:29;;;;;;;1.40;1.30;;;24.10;68.00;;;;;;5044135;28;20485;-43
2022/08/12 01:00:03;;;;;;;1.67;1.30;;;24.10;68.30;;;;;;5045367;28;20164;-43
2022/08/12 01:02:34;;;;;;;2.60;2.10;;;24.00;68.40;;;;;;5045041;28;20067;-43
2022/08/12 01:13:22;;;;;;;1.75;1.30;;;23.80;69.20;;;;;;5045661;28;20095;-43
2022/08/12 01:15:50;;;;;;;1.92;1.40;;;23.80;69.30;;;;;;5048893;28;20024;-43
2022/08/12 01:18:18;;;;;;;2.65;1.40;;;23.70;69.40;;;;;;5048472;28;20025;-43
2022/08/12 01:20:48;;;;;;;2.65;1.40;;;23.70;69.70;;;;;;5048626;28;20369;-42
2022/08/12 01:23:40;;;;;;;1.98;1.40;;;23.70;69.90;;;;;;5049190;28;20040;-42
2022/08/12 01:26:10;;;;;;;3.13;1.60;;;23.60;70.00;;;;;;5040734;28;20036;-43
2022/08/12 01:28:39;;;;;;;1.48;1.38;;;23.60;70.30;;;;;;5048598;28;20389;-42
2022/08/12 01:31:05;;;;;;;2.08;1.88;;;23.50;70.30;;;;;;5047846;28;20060;-42
2022/08/12 01:33:43;;;;;;;2.20;1.40;;;23.50;70.80;;;;;;5048632;28;20484;-43
2022/08/12 01:36:10;;;;;;;1.55;1.42;;;23.50;70.80;;;;;;5038188;28;20107;-42
2022/08/12 01:38:37;;;;;;;1.58;1.45;;;23.40;71.00;;;;;;5048235;28;20044;-43
2022/08/12 01:41:07;;;;;;;1.75;1.30;;;23.40;71.50;;;;;;5048999;28;20433;-43
2022/08/12 01:43:33;;;;;;;2.30;1.73;;;23.40;71.50;;;;;;5048700;28;20132;-42
2022/08/12 01:46:07;;;;;;;1.98;1.48;;;23.40;71.60;;;;;;5047811;28;20566;-42
2022/08/12 01:49:01;;;;;;;1.45;1.35;;;23.30;71.70;;;;;;5048494;28;20575;-43
2022/08/12 01:51:42;;;;;;;1.58;1.40;;;23.30;72.00;;;;;;5048689;28;20107;-43
2022/08/12 01:54:14;;;;;;;2.00;1.58;;;23.30;72.10;;;;;;5048090;28;20051;-43
2022/08/12 01:56:51;;;;;;;2.17;1.60;;;23.20;72.50;;;;;;5048708;28;20032;-43
2022/08/12 02:02:31;;;;;;;2.72;1.50;;;23.20;72.80;;;;;;5040188;28;20072;-43
2022/08/12 02:11:17;;;;;;;2.60;1.73;;;23.10;73.20;;;;;;5048666;28;20040;-43
2022/08/12 02:14:17;;;;;;;1.63;1.52;;;23.00;73.30;;;;;;5042812;28;20766;-43
2022/08/12 02:16:48;;;;;;;3.55;1.48;;;23.00;73.50;;;;;;5047861;28;20036;-43
2022/08/12 02:19:36;;;;;;;1.87;1.60;;;22.90;73.40;;;;;;5048825;28;20032;-43
2022/08/12 02:22:01;;;;;;;1.60;1.50;;;22.90;73.40;;;;;;5047129;28;20040;-43
2022/08/12 02:24:30;;;;;;;2.25;1.50;;;22.90;73.50;;;;;;5047567;28;20036;-42
2022/08/12 02:26:58;;;;;;;1.73;1.63;;;22.90;73.60;;;;;;5046890;28;20076;-42
2022/08/12 02:29:25;;;;;;;1.42;1.33;;;22.90;73.90;;;;;;5048230;28;20028;-43
2022/08/12 02:31:51;;;;;;;2.33;1.40;;;22.80;74.00;;;;;;5047407;28;20074;-43
2022/08/12 02:34:18;;;;;;;1.50;1.40;;;22.80;74.00;;;;;;5047302;28;20300;-43
2022/08/12 02:36:45;;;;;;;1.45;1.30;;;22.80;74.00;;;;;;5047296;28;20037;-43
2022/08/12 02:39:14;;;;;;;2.00;1.55;;;22.80;74.10;;;;;;5047771;28;20451;-43
2022/08/12 02:41:42;;;;;;;2.40;1.88;;;22.80;74.20;;;;;;5046487;28;20389;-43
2022/08/12 02:44:09;;;;;;;1.85;1.50;;;22.70;74.20;;;;;;5047824;28;20064;-42
2022/08/12 02:46:36;;;;;;;2.30;1.60;;;22.70;74.20;;;;;;5047070;28;20102;-43
2022/08/12 02:49:31;;;;;;;1.85;1.70;;;22.70;74.50;;;;;;5047060;28;20044;-44
2022/08/12 02:51:58;;;;;;;1.92;1.60;;;22.70;74.60;;;;;;5047143;28;20024;-44
2022/08/12 02:54:25;;;;;;;1.90;1.80;;;22.60;74.60;;;;;;5047564;28;20029;-43
2022/08/12 02:56:51;;;;;;;1.70;1.60;;;22.60;74.70;;;;;;5046420;28;20048;-43
2022/08/12 02:59:21;;;;;;;1.75;1.50;;;22.60;74.90;;;;;;5047588;28;20119;-44
2022/08/12 03:01:52;;;;;;;2.33;1.50;;;22.50;74.90;;;;;;5046844;28;20476;-44
2022/08/12 03:04:49;;;;;;;1.63;1.50;;;22.50;75.20;;;;;;5046782;28;20044;-44
2022/08/12 03:07:20;;;;;;;1.67;1.30;;;22.50;75.20;;;;;;5047125;28;20041;-44
2022/08/12 03:09:58;;;;;;;1.75;1.60;;;22.40;75.00;;;;;;5046815;28;20022;-42
2022/08/12 03:12:25;;;;;;;1.80;1.60;;;22.40;75.00;;;;;;5047269;28;20033;-42
2022/08/12 03:14:53;;;;;;;1.38;1.27;;;22.40;75.00;;;;;;5046949;28;20040;-43
2022/08/12 03:17:28;;;;;;;2.47;1.38;;;22.40;75.10;;;;;;5046470;28;20029;-43
2022/08/12 03:19:55;;;;;;;2.67;1.45;;;22.40;75.20;;;;;;5047248;28;20028;-42
2022/08/12 03:22:23;;;;;;;1.60;1.50;;;22.40;75.20;;;;;;5047125;28;20086;-42
2022/08/12 03:24:49;;;;;;;2.53;1.30;;;22.40;75.20;;;;;;5034902;28;20407;-43
2022/08/12 03:27:16;;;;;;;1.75;1.60;;;22.30;75.30;;;;;;5047311;28;20044;-42
2022/08/12 03:29:46;;;;;;;1.70;1.60;;;22.30;75.30;;;;;;5046688;28;20473;-42
2022/08/12 03:32:13;;;;;;;1.33;1.23;;;22.30;75.40;;;;;;5046887;28;20100;-43
2022/08/12 03:34:40;;;;;;;1.67;1.40;;;22.30;75.50;;;;;;5046861;28;20025;-43
2022/08/12 03:37:09;;;;;;;1.73;1.40;;;22.20;75.60;;;;;;5045461;28;20033;-43
2022/08/12 03:42:08;;;;;;;2.10;1.60;;;22.20;75.80;;;;;;5046432;28;20099;-43
2022/08/12 04:01:14;;;;;;;2.08;1.88;;;22.00;76.10;;;;;;5037742;28;20554;-42
2022/08/12 04:03:53;;;;;;;1.55;1.45;;;22.00;76.10;;;;;;5045727;28;20145;-42
2022/08/12 04:06:26;;;;;;;1.50;1.40;;;22.00;76.20;;;;;;5035978;28;20021;-42
2022/08/12 04:08:56;;;;;;;1.55;1.35;;;21.90;76.10;;;;;;5045835;28;20100;-43
2022/08/12 04:14:19;;;;;;;2.25;1.52;;;21.90;76.00;;;;;;5045179;28;20091;-43
2022/08/12 04:16:47;;;;;;;1.52;1.42;;;21.90;76.00;;;;;;5046121;28;20036;-42
2022/08/12 04:19:14;;;;;;;1.50;1.40;;;21.90;76.00;;;;;;5045859;28;20048;-43
2022/08/12 04:21:40;;;;;;;1.52;1.40;;;21.90;76.10;;;;;;5044379;28;20017;-44
2022/08/12 04:24:06;;;;;;;2.03;1.58;;;21.90;76.00;;;;;;5046016;28;20033;-43
2022/08/12 04:26:34;;;;;;;1.50;1.40;;;21.90;76.10;;;;;;5044726;28;20064;-42
2022/08/12 04:29:01;;;;;;;1.73;1.60;;;21.90;76.10;;;;;;5045559;28;20025;-42
2022/08/12 04:31:35;;;;;;;2.50;1.50;;;21.80;76.00;;;;;;5045736;28;20083;-43
2022/08/12 04:34:02;;;;;;;1.48;1.38;;;21.90;76.10;;;;;;5044488;28;20384;-43
2022/08/12 04:36:29;;;;;;;1.60;1.50;;;21.90;76.10;;;;;;5045194;28;20039;-44
2022/08/12 04:38:57;;;;;;;1.50;1.40;;;21.80;76.10;;;;;;5045843;28;20384;-43
2022/08/12 04:41:23;;;;;;;1.88;1.33;;;21.80;76.00;;;;;;5044426;28;20524;-42
2022/08/12 04:43:50;;;;;;;1.65;1.55;;;21.80;76.10;;;;;;5045230;28;20028;-43
2022/08/12 04:46:15;;;;;;;1.73;1.60;;;21.80;76.10;;;;;;5045237;28;20040;-42
2022/08/12 04:48:41;;;;;;;2.53;1.40;;;21.80;76.10;;;;;;5044326;28;20546;-42
2022/08/12 04:51:07;;;;;;;1.67;1.50;;;21.80;76.10;;;;;;5044948;28;20427;-43
2022/08/12 04:53:33;;;;;;;1.83;1.60;;;21.80;76.10;;;;;;5045236;28;20033;-44
2022/08/12 04:55:59;;;;;;;1.65;1.42;;;21.80;76.10;;;;;;5044425;28;20013;-43
2022/08/12 04:58:25;;;;;;;1.80;1.48;;;21.80;76.10;;;;;;5044864;28;20083;-44
2022/08/12 05:00:51;;;;;;;2.00;1.50;;;21.80;76.30;;;;;;5045410;28;20347;-43
2022/08/12 05:03:17;;;;;;;2.33;1.65;;;21.80;76.30;;;;;;5044478;28;20059;-43
2022/08/12 05:05:43;;;;;;;2.55;1.90;;;21.80;76.40;;;;;;5045067;28;20025;-43
2022/08/12 05:08:14;;;;;;;3.17;1.75;;;21.80;76.30;;;;;;5045475;28;20048;-44
2022/08/12 05:10:41;;;;;;;1.88;1.73;;;21.80;76.30;;;;;;5044195;28;20091;-44
2022/08/12 05:13:13;;;;;;;4.53;1.70;;;21.80;76.10;;;;;;5045388;28;20029;-44
2022/08/12 05:15:40;;;;;;;1.80;1.52;;;21.80;76.00;;;;;;5044698;28;20519;-43
2022/08/12 05:18:05;;;;;;;3.42;1.88;;;21.80;76.00;;;;;;5044029;28;20048;-43
2022/08/12 05:20:32;;;;;;;1.98;1.67;;;21.80;75.90;;;;;;5045494;28;20463;-43
2022/08/12 05:23:12;;;;;;;1.80;1.70;;;21.90;75.90;;;;;;5043728;28;20380;-43
2022/08/12 05:25:38;;;;;;;1.80;1.70;;;21.90;75.90;;;;;;5045539;28;20048;-43
2022/08/12 05:28:04;;;;;;;3.70;1.60;;;21.90;75.70;;;;;;5045122;28;20096;-43
2022/08/12 05:30:32;;;;;;;2.00;1.80;;;21.90;75.70;;;;;;5044216;28;20047;-43
2022/08/12 05:32:58;;;;;;;1.60;1.40;;;21.90;75.60;;;;;;5044848;28;20060;-43
2022/08/12 05:35:24;;;;;;;2.00;1.60;;;21.90;75.60;;;;;;5044785;28;20025;-43
2022/08/12 05:38:54;;;;;;;2.03;1.85;;;22.00;75.60;;;;;;5043734;28;20392;-43
2022/08/12 05:40:38;;;;;;;1.90;1.65;;;22.00;75.60;;;;;;5024720;28;20563;-43
2022/08/12 05:43:05;;;;;;;1.83;1.60;;;22.00;75.50;;;;;;5039013;28;20069;-42
2022/08/12 05:45:30;;;;;;;2.58;1.63;;;22.00;75.50;;;;;;5044128;28;20035;-42
2022/08/12 05:47:56;;;;;;;4.07;1.80;;;22.10;75.50;;;;;;5042366;28;20028;-43
2022/08/12 05:50:21;;;;;;;1.33;1.30;;;22.10;75.50;;;;;;5042177;28;20469;-43
2022/08/12 05:52:47;;;;;;;1.98;1.60;;;22.10;75.40;;;;;;5042639;28;20021;-43
2022/08/12 05:55:12;;;;;;;2.03;1.83;;;22.10;75.50;;;;;;5043799;28;20559;-44
2022/08/12 05:57:38;;;;;;;2.10;1.90;;;22.10;75.50;;;;;;5042731;28;20480;-44
2022/08/12 06:00:05;;;;;;;1.75;1.65;;;22.10;75.50;;;;;;5044564;28;20888;-43
2022/08/12 06:02:31;;;;;;;2.17;2.05;;;22.20;75.60;;;;;;5047283;28;20052;-43
2022/08/12 06:04:59;;;;;;;2.70;1.90;;;22.20;75.50;;;;;;5047160;28;20047;-43
2022/08/12 06:07:24;;;;;;;2.15;1.90;;;22.20;75.50;;;;;;5047340;28;20480;-43
2022/08/12 06:09:50;;;;;;;2.95;1.98;;;22.20;75.50;;;;;;5043589;28;20107;-43
2022/08/12 06:12:20;;;;;;;1.70;1.60;;;22.30;75.40;;;;;;5046419;28;20032;-43
2022/08/12 06:14:46;;;;;;;1.90;1.60;;;22.30;75.40;;;;;;5046322;28;20385;-44
2022/08/12 06:17:11;;;;;;;2.00;1.80;;;22.30;75.30;;;;;;5047555;28;20032;-43
2022/08/12 06:19:37;;;;;;;1.85;1.58;;;22.40;75.30;;;;;;5045957;28;20033;-44
2022/08/12 06:22:02;;;;;;;1.92;1.80;;;22.40;75.30;;;;;;5046873;28;20033;-44
2022/08/12 06:24:28;;;;;;;2.17;1.77;;;22.40;75.20;;;;;;5047628;28;20084;-43
2022/08/12 06:26:56;;;;;;;3.80;1.88;;;22.50;75.20;;;;;;5046223;28;20041;-42
2022/08/12 06:29:22;;;;;;;3.13;2.17;;;22.50;75.10;;;;;;5047118;28;20366;-43
2022/08/12 06:31:51;;;;;;;1.90;1.70;;;22.50;75.10;;;;;;5046963;28;20036;-43
2022/08/12 06:34:17;;;;;;;2.25;1.88;;;22.60;75.10;;;;;;5046715;28;20024;-44
2022/08/12 06:36:44;;;;;;;2.13;1.92;;;22.60;75.00;;;;;;5047670;28;20108;-45
2022/08/12 06:39:14;;;;;;;1.65;1.55;;;22.70;75.00;;;;;;5047348;28;20017;-43
2022/08/12 06:44:24;;;;;;;2.90;1.75;;;22.70;74.90;;;;;;5047539;28;20075;-43
2022/08/12 06:46:51;;;;;;;1.95;1.75;;;22.80;75.50;;;;;;5047703;28;20124;-43
2022/08/12 06:49:16;;;;;;;3.33;1.67;;;22.80;74.90;;;;;;5046982;28;20017;-43
2022/08/12 06:51:42;;;;;;;2.90;2.20;;;22.90;74.90;;;;;;5047003;28;20099;-42
2022/08/12 06:54:10;;;;;;;3.05;1.90;;;22.90;74.80;;;;;;5046989;28;20029;-44
2022/08/12 06:56:35;;;;;;;2.10;1.90;;;22.90;74.70;;;;;;5046224;28;20404;-45
2022/08/12 06:59:02;;;;;;;2.70;2.10;;;23.00;74.60;;;;;;5046712;28;20461;-43
2022/08/12 07:01:30;;;;;;;1.95;1.73;;;23.00;74.50;;;;;;5045452;28;20020;-43
2022/08/12 07:03:56;;;;;;;2.45;1.73;;;23.10;74.50;;;;;;5046549;28;20418;-43
2022/08/12 07:06:24;;;;;;;3.75;2.13;;;23.10;74.40;;;;;;5046874;28;20221;-43
2022/08/12 07:08:50;;;;;;;2.30;2.10;;;23.10;74.90;;;;;;5046793;28;20503;-44
2022/08/12 07:11:15;;;;;;;2.35;2.15;;;23.20;74.20;;;;;;5046766;28;20032;-44
2022/08/12 07:13:44;;;;;;;2.28;2.10;;;23.20;74.00;;;;;;5046942;28;20033;-44
2022/08/12 07:16:13;;;;;;;2.63;2.00;;;23.30;74.00;;;;;;5046764;28;20377;-44
2022/08/12 07:18:46;;;;;;;4.43;2.10;;;23.30;73.90;;;;;;5046946;28;20090;-44
2022/08/12 07:21:13;;;;;;;2.85;2.13;;;23.40;73.80;;;;;;5047348;28;20071;-44
2022/08/12 07:23:40;;;;;;;3.67;2.22;;;23.40;73.70;;;;;;5046003;28;20083;-43
2022/08/12 07:26:09;;;;;;;2.30;1.98;;;23.40;73.60;;;;;;5046209;28;20017;-43
2022/08/12 07:28:38;;;;;;;3.03;2.00;;;23.40;73.60;;;;;;5046314;28;20044;-43
2022/08/12 07:31:08;;;;;;;3.00;1.90;;;23.50;73.50;;;;;;5045653;28;20028;-44
2022/08/12 07:33:39;;;;;;;2.03;1.80;;;23.60;73.40;;;;;;5046064;28;20480;-44
2022/08/12 07:36:09;;;;;;;2.40;1.63;;;23.60;73.20;;;;;;5045785;28;20013;-44
2022/08/12 07:38:38;;;;;;;3.20;1.73;;;23.70;73.20;;;;;;5045461;28;20269;-44
2022/08/12 07:41:24;;;;;;;2.85;1.77;;;23.70;73.00;;;;;;5045916;28;20767;-42
2022/08/12 07:44:03;;;;;;;2.50;1.98;;;23.80;72.80;;;;;;5045261;28;20025;-43
2022/08/12 07:46:35;;;;;;;2.08;1.88;;;23.90;72.80;;;;;;5046190;28;20105;-43
2022/08/12 07:49:04;;;;;;;2.05;1.85;;;23.90;72.70;;;;;;5045969;28;20025;-43
2022/08/12 07:51:30;;;;;;;2.88;1.83;;;24.00;72.70;;;;;;5045156;28;20155;-43
2022/08/12 07:53:58;;;;;;;3.47;2.30;;;24.10;72.70;;;;;;5045761;28;20025;-43
2022/08/12 07:56:24;;;;;;;2.88;2.00;;;24.10;72.50;;;;;;5046154;28;20021;-43
2022/08/12 07:58:50;;;;;;;2.75;1.85;;;24.20;72.30;;;;;;5045294;28;20480;-44
2022/08/12 08:01:20;;;;;;;2.13;1.92;;;24.20;72.30;;;;;;5046056;28;20481;-42
2022/08/12 08:06:33;;;;;;;1.80;1.70;;;24.40;72.00;;;;;;5045471;28;20032;-43
2022/08/12 08:09:02;;;;;;;3.05;2.10;;;24.40;71.70;;;;;;5046070;28;20048;-42
2022/08/12 08:14:12;;;;;;;1.70;1.60;;;24.60;71.50;;;;;;5044347;28;20059;-44
2022/08/12 08:16:39;;;;;;;2.33;1.70;;;24.60;71.40;;;;;;5045060;28;20453;-42
2022/08/12 08:19:06;;;;;;;2.15;1.70;;;24.70;71.50;;;;;;5044796;28;20025;-42
2022/08/12 08:21:34;;;;;;;1.60;1.50;;;24.70;71.80;;;;;;5045941;28;20603;-44
2022/08/12 08:24:15;;;;;;;2.95;1.95;;;24.70;71.30;;;;;;5044573;28;20033;-43
2022/08/12 08:26:46;;;;;;;1.80;1.70;;;24.80;71.30;;;;;;5044741;28;20036;-43
2022/08/12 08:29:13;;;;;;;3.03;1.83;;;24.90;71.10;;;;;;5045646;28;20476;-44
2022/08/12 08:31:42;;;;;;;3.17;1.85;;;24.90;70.60;;;;;;5043542;28;20051;-43
2022/08/12 08:34:14;;;;;;;1.85;1.60;;;25.00;70.30;;;;;;5043891;28;20079;-43
2022/08/12 08:36:40;;;;;;;1.83;1.73;;;25.10;70.00;;;;;;5044966;28;20602;-43
2022/08/12 08:39:07;;;;;;;2.40;1.52;;;25.20;69.70;;;;;;5044765;28;20032;-42
2022/08/12 08:44:19;;;;;;;2.15;1.85;;;25.30;69.50;;;;;;5045749;28;20035;-43
2022/08/12 08:46:45;;;;;;;2.30;1.90;;;25.40;69.40;;;;;;5044725;28;20108;-43
2022/08/12 08:49:11;;;;;;;1.65;1.55;;;25.50;69.40;;;;;;5044654;28;20516;-44
2022/08/12 08:51:38;;;;;;;2.20;1.58;;;25.50;69.30;;;;;;5045077;28;20052;-44
2022/08/12 08:54:10;;;;;;;1.80;1.70;;;25.50;69.20;;;;;;5044019;28;20021;-43
2022/08/12 08:56:42;;;;;;;2.03;1.60;;;25.60;69.20;;;;;;5044708;28;20063;-43
2022/08/12 08:59:10;;;;;;;2.03;1.80;;;25.60;68.90;;;;;;5045071;28;20021;-43
2022/08/12 09:01:36;;;;;;;2.58;1.60;;;25.70;69.30;;;;;;5044232;28;20068;-43
2022/08/12 09:04:01;;;;;;;2.40;1.83;;;25.80;68.30;;;;;;5044737;28;20048;-42
2022/08/12 09:06:27;;;;;;;1.80;1.70;;;25.90;68.20;;;;;;5044693;28;20465;-43
2022/08/12 09:08:53;;;;;;;2.05;1.65;;;25.90;68.00;;;;;;5044188;28;20393;-44
2022/08/12 09:14:06;;;;;;;3.75;1.70;;;26.00;67.30;;;;;;5045032;28;20040;-43
2022/08/12 09:16:32;;;;;;;1.92;1.73;;;26.10;67.20;;;;;;5033422;28;20447;-44
2022/08/12 09:18:59;;;;;;;2.95;2.10;;;26.10;67.20;;;;;;5044597;28;20025;-43
2022/08/12 09:21:24;;;;;;;3.95;1.90;;;26.10;66.80;;;;;;5044813;28;20092;-43
2022/08/12 09:23:50;;;;;;;3.53;1.98;;;26.20;66.70;;;;;;5044196;28;20097;-43
2022/08/12 09:26:17;;;;;;;2.17;1.85;;;26.40;66.50;;;;;;5044340;28;20421;-43
2022/08/12 09:28:46;;;;;;;1.92;1.73;;;26.40;66.20;;;;;;5045279;28;20485;-42
2022/08/12 09:31:11;;;;;;;3.10;1.90;;;26.40;66.00;;;;;;5044502;28;20436;-44
2022/08/12 09:33:37;;;;;;;2.85;1.80;;;26.50;65.90;;;;;;5045029;28;20488;-44
2022/08/12 09:36:03;;;;;;;3.03;1.60;;;26.50;65.70;;;;;;5046525;28;20036;-42
2022/08/12 09:38:29;;;;;;;2.45;1.48;;;26.50;65.70;;;;;;5048414;28;20028;-43
2022/08/12 09:40:56;;;;;;;1.95;1.60;;;26.50;65.50;;;;;;5048521;28;20039;-42
2022/08/12 09:46:08;;;;;;;1.60;1.50;;;26.60;65.10;;;;;;5048489;28;20106;-43
2022/08/12 09:48:33;;;;;;;1.70;1.60;;;26.60;65.00;;;;;;5048059;28;20464;-43
2022/08/12 09:50:59;;;;;;;1.70;1.60;;;26.70;64.80;;;;;;5046985;28;20028;-42
2022/08/12 09:53:25;;;;;;;1.85;1.60;;;26.70;64.70;;;;;;5048911;28;20142;-43
2022/08/12 09:55:56;;;;;;;2.03;1.60;;;26.80;64.70;;;;;;5047961;28;20527;-43
2022/08/12 09:58:28;;;;;;;4.60;1.73;;;26.80;64.30;;;;;;5048086;28;20534;-43
2022/08/12 10:01:01;;;;;;;1.67;1.58;;;26.90;63.70;;;;;;5048409;28;20036;-43
2022/08/12 10:03:30;;;;;;;1.52;1.42;;;27.00;63.40;;;;;;5048012;28;20044;-42
2022/08/12 10:06:00;;;;;;;1.85;1.70;;;27.10;63.40;;;;;;5046792;28;20021;-44
2022/08/12 10:08:29;;;;;;;1.95;1.75;;;27.10;63.00;;;;;;5048330;28;20135;-43
2022/08/12 10:13:41;;;;;;;2.60;1.80;;;27.20;63.00;;;;;;5039139;28;20044;-44
2022/08/12 10:16:10;;;;;;;2.10;1.70;;;27.30;62.90;;;;;;5048082;28;20020;-43
2022/08/12 10:18:43;;;;;;;3.55;1.60;;;27.30;62.40;;;;;;5036457;28;20025;-44
2022/08/12 10:21:11;;;;;;;1.98;1.50;;;27.40;62.10;;;;;;5047890;28;20104;-43
2022/08/12 10:23:39;;;;;;;1.50;1.40;;;27.40;61.70;;;;;;5047454;28;20036;-43
2022/08/12 10:31:34;;;;;;;2.15;1.50;;;27.60;61.60;;;;;;5047628;28;20483;-43
2022/08/12 10:33:59;;;;;;;1.90;1.65;;;27.60;61.40;;;;;;5047075;28;20033;-44
2022/08/12 10:36:25;;;;;;;2.85;1.65;;;27.70;60.40;;;;;;5047110;28;20429;-44
2022/08/12 10:38:53;;;;;;;1.60;1.50;;;27.80;60.40;;;;;;5047025;28;20636;-44
2022/08/12 10:44:04;;;;;;;4.07;2.08;;;28.00;60.50;;;;;;5047920;28;20036;-43
2022/08/12 10:46:30;;;;;;;1.70;1.52;;;28.10;60.20;;;;;;5045952;28;20029;-44
2022/08/12 10:48:56;;;;;;;1.60;1.50;;;28.10;60.30;;;;;;5047047;28;20032;-44
2022/08/12 10:51:22;;;;;;;1.80;1.40;;;28.20;60.40;;;;;;5047302;28;20025;-43
2022/08/12 10:53:48;;;;;;;1.65;1.40;;;28.20;60.30;;;;;;5045846;28;20032;-43
2022/08/12 10:56:17;;;;;;;1.67;1.58;;;28.30;60.30;;;;;;5047474;28;20039;-44
2022/08/12 10:58:44;;;;;;;2.58;1.80;;;28.30;60.10;;;;;;5046951;28;20029;-44
2022/08/12 11:01:09;;;;;;;2.28;1.60;;;28.40;59.80;;;;;;5046630;28;20028;-44
2022/08/12 11:03:38;;;;;;;1.45;1.35;;;28.40;59.00;;;;;;5046239;28;20049;-43
2022/08/12 11:06:06;;;;;;;1.63;1.52;;;28.50;59.10;;;;;;5046895;28;20079;-43
2022/08/12 11:08:36;;;;;;;1.60;1.50;;;28.50;58.80;;;;;;5046702;28;20049;-44
2022/08/12 11:11:07;;;;;;;2.05;1.90;;;28.50;58.60;;;;;;5046951;28;20352;-44
2022/08/12 11:13:36;;;;;;;1.70;1.60;;;28.60;58.20;;;;;;5046872;28;20056;-44
2022/08/12 11:16:04;;;;;;;2.05;1.60;;;28.60;58.00;;;;;;5045655;28;20039;-44
2022/08/12 11:18:29;;;;;;;2.25;1.55;;;28.60;57.70;;;;;;5046423;28;20045;-44
2022/08/12 11:20:55;;;;;;;3.08;1.80;;;28.70;57.80;;;;;;5047592;28;20060;-43
2022/08/12 11:23:21;;;;;;;1.70;1.58;;;28.70;56.80;;;;;;5046034;28;20447;-43
2022/08/12 11:25:48;;;;;;;2.85;1.70;;;28.70;56.70;;;;;;5046361;28;20025;-43
2022/08/12 11:28:15;;;;;;;1.80;1.70;;;28.70;56.70;;;;;;5046547;28;20033;-43
2022/08/12 11:30:41;;;;;;;2.55;1.65;;;28.80;56.50;;;;;;5045523;28;20053;-44
2022/08/12 11:33:07;;;;;;;1.70;1.60;;;28.80;56.30;;;;;;5046897;28;20025;-44
2022/08/12 11:35:35;;;;;;;1.95;1.48;;;28.80;56.40;;;;;;5044400;28;20112;-44
2022/08/12 11:38:01;;;;;;;1.52;1.40;;;28.90;56.60;;;;;;5046511;28;20396;-44
2022/08/12 11:40:27;;;;;;;1.40;1.30;;;28.90;56.70;;;;;;5045874;28;20017;-44
2022/08/12 11:42:53;;;;;;;1.50;1.40;;;28.90;56.90;;;;;;5046347;28;20057;-44
2022/08/12 11:45:18;;;;;;;2.22;1.50;;;28.90;56.80;;;;;;5046121;28;20063;-44
2022/08/12 11:47:44;;;;;;;1.60;1.50;;;28.90;56.60;;;;;;5045494;28;20539;-44
2022/08/12 11:50:10;;;;;;;1.70;1.60;;;29.00;56.60;;;;;;5045705;28;20381;-44
2022/08/12 11:52:36;;;;;;;3.13;1.70;;;29.00;56.30;;;;;;5045988;28;20032;-44
2022/08/12 11:55:01;;;;;;;3.90;1.48;;;29.10;56.20;;;;;;5045808;28;20028;-44
2022/08/12 11:57:27;;;;;;;1.48;1.38;;;29.10;56.30;;;;;;5044547;28;20403;-44
2022/08/12 11:59:53;;;;;;;2.35;1.38;;;29.10;56.40;;;;;;5045788;28;20036;-44
2022/08/12 12:02:18;;;;;;;1.40;1.30;;;29.20;56.60;;;;;;5044996;28;20162;-44
2022/08/12 12:04:44;;;;;;;7.00;1.60;;;29.30;56.70;;;;;;5044308;28;20361;-44
2022/08/12 12:07:09;;;;;;;1.50;1.40;;;29.30;56.60;;;;;;5045253;28;20124;-44
2022/08/12 12:09:35;;;;;;;1.10;1.10;;;29.40;56.60;;;;;;5045321;28;20061;-43
2022/08/12 12:12:03;;;;;;;1.50;1.40;;;29.40;56.60;;;;;;5045215;28;20468;-43
2022/08/12 12:14:29;;;;;;;1.40;1.30;;;29.40;56.60;;;;;;5045853;28;20057;-43
2022/08/12 12:16:54;;;;;;;1.75;1.10;;;29.40;56.70;;;;;;5044242;28;20016;-43
2022/08/12 12:19:20;;;;;;;1.40;1.30;;;29.40;56.90;;;;;;5045533;28;20361;-43
2022/08/12 12:21:45;;;;;;;3.65;1.50;;;29.40;56.80;;;;;;5045257;28;20021;-44
2022/08/12 12:24:11;;;;;;;2.58;1.50;;;29.50;56.90;;;;;;5046292;28;20468;-44
2022/08/12 12:26:37;;;;;;;1.58;1.48;;;29.50;57.10;;;;;;5044352;28;20032;-45
2022/08/12 12:29:03;;;;;;;1.20;1.20;;;29.50;57.10;;;;;;5045203;28;20040;-44
2022/08/12 12:31:31;;;;;;;1.70;1.20;;;29.60;57.20;;;;;;5045432;28;20028;-44
2022/08/12 12:33:57;;;;;;;1.50;1.40;;;29.60;57.00;;;;;;5045588;28;20032;-44
2022/08/12 12:36:23;;;;;;;1.60;1.50;;;29.70;56.60;;;;;;5045504;28;20362;-44
2022/08/12 12:38:49;;;;;;;1.80;1.70;;;29.70;56.50;;;;;;5045021;28;20044;-44
2022/08/12 12:41:15;;;;;;;1.60;1.50;;;29.70;56.30;;;;;;5045388;28;20025;-44
2022/08/12 12:43:40;;;;;;;1.60;1.42;;;29.70;55.80;;;;;;5045748;28;20053;-43
2022/08/12 12:46:06;;;;;;;2.05;1.92;;;29.70;55.30;;;;;;5044615;28;20035;-43
2022/08/12 12:48:31;;;;;;;1.65;1.55;;;29.80;55.20;;;;;;5045084;28;20503;-43
2022/08/12 12:51:15;;;;;;;1.60;1.50;;;29.80;55.30;;;;;;5045448;28;20163;-43
2022/08/12 12:53:44;;;;;;;1.60;1.50;;;29.80;55.70;;;;;;5051045;28;20025;-44
2022/08/12 12:56:21;;;;;;;1.92;1.48;;;29.80;55.50;;;;;;5062266;28;20384;-43
2022/08/12 12:58:48;;;;;;;3.25;1.85;;;29.80;55.20;;;;;;5044940;28;20536;-43
2022/08/12 13:01:15;;;;;;;3.80;1.48;;;29.90;54.90;;;;;;5049165;28;20415;-43
2022/08/12 13:03:40;;;;;;;3.10;1.60;;;29.90;55.50;;;;;;5044799;28;20049;-42
2022/08/12 13:06:07;;;;;;;2.28;1.90;;;29.90;54.80;;;;;;5044710;28;20095;-44
2022/08/12 13:08:33;;;;;;;1.70;1.15;;;30.00;54.60;;;;;;5045285;28;20456;-43
2022/08/12 13:11:02;;;;;;;2.30;1.38;;;30.00;54.70;;;;;;5051449;28;20107;-43
2022/08/12 13:13:31;;;;;;;1.48;1.38;;;30.10;54.80;;;;;;5051510;28;20090;-43
2022/08/12 13:16:00;;;;;;;1.88;1.60;;;30.10;54.50;;;;;;5051277;28;20528;-43
2022/08/12 13:18:35;;;;;;;1.90;1.60;;;30.10;53.90;;;;;;5051173;28;20041;-42
2022/08/12 13:21:07;;;;;;;3.22;1.90;;;30.20;53.80;;;;;;5031365;28;20035;-43
2022/08/12 13:23:34;;;;;;;2.40;1.50;;;30.30;53.60;;;;;;5047208;28;20082;-43
2022/08/12 13:26:00;;;;;;;2.58;1.50;;;30.30;53.70;;;;;;5051294;28;20021;-44
2022/08/12 13:28:28;;;;;;;1.65;1.50;;;30.40;53.60;;;;;;5048216;28;20084;-43
2022/08/12 13:30:58;;;;;;;1.95;1.50;;;30.40;53.40;;;;;;5051119;28;20017;-43
2022/08/12 13:33:28;;;;;;;2.00;1.80;;;30.40;53.10;;;;;;5051350;28;20028;-43
2022/08/12 13:35:57;;;;;;;1.50;1.40;;;30.50;52.90;;;;;;5050616;28;20021;-45
2022/08/12 13:38:37;;;;;;;1.85;1.30;;;30.50;52.90;;;;;;5051451;28;20035;-44
2022/08/12 13:41:07;;;;;;;1.65;1.40;;;30.50;53.30;;;;;;5051024;28;20107;-44
2022/08/12 13:43:33;;;;;;;1.67;1.50;;;30.50;53.20;;;;;;5050052;28;20090;-44
2022/08/12 13:46:00;;;;;;;1.27;1.27;;;30.60;53.10;;;;;;5051850;28;20150;-43
2022/08/12 13:48:25;;;;;;;1.40;1.30;;;30.70;53.10;;;;;;5051037;28;20064;-44
2022/08/12 13:50:51;;;;;;;1.73;1.50;;;30.70;53.10;;;;;;5050726;28;20495;-44
2022/08/12 13:53:18;;;;;;;1.58;1.20;;;30.80;53.00;;;;;;5051471;28;20454;-43
2022/08/12 13:55:47;;;;;;;1.40;1.30;;;30.80;52.70;;;;;;5050892;28;20033;-44
2022/08/12 13:58:16;;;;;;;2.38;1.40;;;30.80;52.80;;;;;;5050808;28;20033;-43
2022/08/12 14:00:49;;;;;;;1.70;1.50;;;30.90;53.00;;;;;;5050476;28;20021;-43
2022/08/12 14:03:16;;;;;;;1.45;1.30;;;30.90;53.00;;;;;;5050968;28;20049;-43
2022/08/12 14:05:42;;;;;;;1.35;1.25;;;30.80;53.00;;;;;;5047099;28;20025;-44
2022/08/12 14:08:10;;;;;;;1.48;1.38;;;30.80;53.70;;;;;;5051601;28;20036;-43
2022/08/12 14:10:45;;;;;;;1.13;1.13;;;30.90;53.30;;;;;;5050216;28;20437;-44
2022/08/12 14:13:11;;;;;;;1.33;1.23;;;30.90;54.00;;;;;;5051227;28;20478;-43
2022/08/12 14:15:41;;;;;;;1.42;1.33;;;30.80;53.20;;;;;;5050314;28;20025;-43
2022/08/12 14:18:11;;;;;;;1.33;1.23;;;30.90;53.00;;;;;;5050544;28;20122;-44
2022/08/12 14:20:37;;;;;;;1.50;1.40;;;30.90;52.70;;;;;;5048400;28;20029;-43
2022/08/12 14:23:03;;;;;;;1.33;1.23;;;30.90;52.90;;;;;;5047842;28;20308;-43
2022/08/12 14:25:29;;;;;;;1.30;1.20;;;30.90;52.90;;;;;;5046576;28;20053;-44
2022/08/12 14:28:10;;;;;;;1.80;1.40;;;30.90;52.80;;;;;;5048250;28;20076;-44
2022/08/12 14:30:41;;;;;;;1.63;1.50;;;30.90;52.50;;;;;;5047293;28;20033;-44
2022/08/12 14:33:06;;;;;;;1.00;1.00;;;31.00;52.80;;;;;;5047245;28;20495;-44
2022/08/12 14:35:32;;;;;;;1.55;1.30;;;31.00;53.00;;;;;;5047086;28;20025;-43
2022/08/12 14:37:57;;;;;;;1.67;1.20;;;31.00;52.90;;;;;;5047576;28;20028;-43
2022/08/12 14:40:23;;;;;;;1.35;1.17;;;31.10;53.00;;;;;;5047412;28;20020;-43
2022/08/12 14:42:49;;;;;;;2.92;1.20;;;31.10;53.00;;;;;;5047107;28;20061;-43
2022/08/12 14:45:14;;;;;;;1.40;1.30;;;31.10;53.00;;;;;;5047309;28;20017;-43